Rodoc, Louisiana
Current Conditions -  °F | °C
As of 2:35 AM on Sunday 23 Nov 2014 (Local Time) from KHZR Reporting Station
Overcast Overcast  
Wind Chill: 64°   Ceiling: 600
Heat Index: 64°   Visibility: 10mi
Dew Point: 62°   Wind: 9mph
Humidity: 94%   Direction: 110°ESE
Pressure: 29.77"   Gusts: 20mph
Location:  30.9294°N, 91.9479°W
Report Text: KHZR 230835Z AUTO 11008G17KT 10SM OVC006 18/17 A2977 RMK AO2 LTG DSNT S T01770168
Loading
Personal Weather Stations






























Interactive Weather Map New forecast layout! Learn more

10-Day Weather Forecast

Advertisements
Track Severe Weather on mobile